Hana — 2BCV4 — position and weather

sailwx.info

Track history (hours):
 
Tides and Currents Weather Stations Pressure Air Temp Water Temp Dewpoint Dewpoint Depression Visibility Wind Speed Wind Dir Waves Ship Positions

Hana

Last reported at 2015-Jun-30 19:04 UTC. Time now 2015-Jun-30 21:25 UTC.
Position N 38°53' E 001°27'.

Length 42 m; draft 2.9 m.

Type: Pleasure craft. MMSI: 235065022.

Date/timePositionNaut miles runAvg speedWind from/ knotsBaromVisibWave heightAir tempDewpointWater temp
2015-Jun-30 19:04N 38°53' E 001°27'711.9
2015-Jun-30 18:29N 38°47' E 001°25'1 0.4
2015-Jun-30 15:27N 38°46' E 001°26'0 0.0
2015-Jun-30 14:20N 38°46' E 001°26'0 0.0
2015-Jun-30 12:30N 38°46' E 001°26'0 0.0
2015-Jun-30 10:19N 38°46' E 001°26'4 5.6
2015-Jun-30 09:33N 38°50' E 001°25'2 0.9
2015-Jun-30 07:33N 38°52' E 001°26'6 1.1
2015-Jun-30 02:33N 38°52' E 001°19'0 0.0
2015-Jun-30 01:30N 38°52' E 001°19'0 0.0
2015-Jun-29 22:12N 38°52' E 001°19'0 0.0
2015-Jun-29 21:29N 38°52' E 001°19'0 0.0
2015-Jun-29 20:25N 38°52' E 001°19'5 1.8
2015-Jun-29 17:29N 38°47' E 001°21'5 0.6
2015-Jun-29 09:11N 38°42' E 001°23'4 6.2
2015-Jun-29 08:33N 38°38' E 001°25'8 8.1
2015-Jun-29 07:33N 38°42' E 001°34'2 0.9
2015-Jun-29 05:27N 38°41' E 001°32'0 0.0
2015-Jun-29 04:33N 38°41' E 001°32'0 0.0
2015-Jun-29 03:33N 38°41' E 001°32'0 0.0
2015-Jun-29 02:29N 38°41' E 001°32'0 0.0
2015-Jun-29 01:29N 38°41' E 001°32'0 0.0
2015-Jun-28 21:15N 38°41' E 001°32'0 0.0
2015-Jun-28 20:05N 38°41' E 001°32'0 0.0
2015-Jun-28 19:21N 38°41' E 001°32'0 0.0
2015-Jun-28 18:21N 38°41' E 001°32'0 0.0
2015-Jun-28 17:29N 38°41' E 001°32'0 0.0
2015-Jun-28 15:33N 38°41' E 001°32'0 0.0
2015-Jun-28 14:21N 38°41' E 001°32'0 0.0
2015-Jun-28 13:33N 38°41' E 001°32'0 0.0
2015-Jun-28 10:23N 38°41' E 001°32'1 0.9
2015-Jun-28 09:31N 38°41' E 001°32'9 9.8
2015-Jun-28 08:33N 38°50' E 001°27'2 0.1
2015-Jun-27 18:34N 38°48' E 001°26'2 1.1
2015-Jun-27 16:32N 38°46' E 001°26'0 0.0
2015-Jun-27 11:32N 38°46' E 001°26'0 0.5
2015-Jun-27 10:33N 38°46' E 001°26'0 0.1
2015-Jun-27 09:27N 38°46' E 001°26'0 0.2
2015-Jun-27 08:24N 38°46' E 001°26'0 0.0
2015-Jun-27 07:30N 38°46' E 001°26'4 1.1
2015-Jun-27 04:04N 38°50' E 001°26'5 9.6
2015-Jun-27 03:32N 38°53' E 001°31'9 9.6
2015-Jun-27 02:33N 39°00' E 001°39'9 9.4
2015-Jun-27 01:33N 39°07' E 001°47'9 9.3
2015-Jun-27 00:33N 39°14' E 001°55'9 9.3
2015-Jun-26 23:33N 39°21' E 002°03'9 9.2
2015-Jun-26 22:33N 39°27' E 002°11'9 9.1
2015-Jun-26 21:33N 39°34' E 002°19'10 9.3
2015-Jun-26 20:31N 39°41' E 002°29'8 1.3
2015-Jun-26 14:25N 39°46' E 002°37'1 0.3
2015-Jun-26 12:33N 39°46' E 002°38'4 2.2
2015-Jun-26 10:33N 39°49' E 002°42'0 0.0
2015-Jun-26 09:33N 39°49' E 002°42'0 0.0
2015-Jun-26 08:34N 39°49' E 002°42'0 0.0
2015-Jun-26 07:34N 39°49' E 002°42'0 0.0
2015-Jun-26 06:33N 39°49' E 002°42'0 0.0
2015-Jun-26 05:34N 39°49' E 002°42'0 0.0
2015-Jun-26 04:33N 39°49' E 002°42'0 0.0
2015-Jun-26 03:33N 39°49' E 002°42'0 0.0
2015-Jun-26 02:33N 39°49' E 002°42'0 0.0
2015-Jun-26 01:33N 39°49' E 002°42'4 4.5
2015-Jun-26 00:33N 39°46' E 002°37'1010.2
2015-Jun-25 23:33N 39°40' E 002°27'8 0.6
2015-Jun-25 09:23N 39°32' E 002°25'0 0.1
2015-Jun-25 08:33N 39°32' E 002°25'0 0.0
2015-Jun-25 07:33N 39°32' E 002°25'0 0.0
2015-Jun-25 06:32N 39°32' E 002°25'0 0.0
2015-Jun-25 05:34N 39°32' E 002°25'0 0.0
2015-Jun-25 04:33N 39°32' E 002°25'0 0.0
2015-Jun-25 03:25N 39°32' E 002°25'0 0.0
2015-Jun-25 02:32N 39°32' E 002°25'0 0.0
2015-Jun-25 01:24N 39°32' E 002°25'0 0.0
2015-Jun-25 00:32N 39°32' E 002°25'5 5.3
2015-Jun-24 23:31N 39°36' E 002°21'5 5.0
2015-Jun-24 22:27N 39°31' E 002°22'9 9.8
2015-Jun-24 21:33N 39°27' E 002°32'8 8.0
2015-Jun-24 20:33N 39°33' E 002°38'0 0.0
2015-Jun-24 19:32N 39°33' E 002°38'1 0.9
2015-Jun-24 18:33N 39°33' E 002°39'5 5.2
2015-Jun-24 17:32N 39°30' E 002°33'0 0.0
2015-Jun-24 16:32N 39°30' E 002°33'0 0.0
2015-Jun-24 15:32N 39°30' E 002°33'0 0.4
2015-Jun-24 14:33N 39°31' E 002°33'5 4.5
2015-Jun-24 13:32N 39°33' E 002°38'0 0.0
2015-Jun-24 12:32N 39°33' E 002°38'0 0.0
2015-Jun-24 11:32N 39°33' E 002°38'0 0.0
2015-Jun-24 10:32N 39°33' E 002°38'0 0.0
2015-Jun-24 09:32N 39°33' E 002°38'0 0.0
2015-Jun-24 08:32N 39°33' E 002°38'0 0.0
2015-Jun-24 07:32N 39°33' E 002°38'0 0.0
2015-Jun-24 06:32N 39°33' E 002°38'0 0.0
2015-Jun-24 05:29N 39°33' E 002°38'0 0.0
2015-Jun-24 04:32N 39°33' E 002°38'0 0.0
2015-Jun-24 03:29N 39°33' E 002°38'0 0.0
2015-Jun-24 02:32N 39°33' E 002°38'0 0.0
2015-Jun-24 01:32N 39°33' E 002°38'0 0.0
2015-Jun-24 00:32N 39°33' E 002°38'0 0.0
2015-Jun-23 23:32N 39°33' E 002°38'0 0.0
2015-Jun-23 22:32N 39°33' E 002°38'0 0.0
2015-Jun-23 21:32N 39°33' E 002°38'0 0.0
2015-Jun-23 20:32N 39°33' E 002°38'0 0.0
2015-Jun-23 19:32N 39°33' E 002°38'0 0.0
2015-Jun-23 19:02N 39°33' E 002°38'0 0.0
2015-Jun-22 19:32N 39°33' E 002°38'0 0.0
2015-Jun-22 18:32N 39°33' E 002°38'0 0.0
2015-Jun-22 17:17N 39°33' E 002°38'0 0.0
2015-Jun-22 16:26N 39°33' E 002°38'0 0.0
2015-Jun-22 15:32N 39°33' E 002°38'0 0.0
2015-Jun-22 14:32N 39°33' E 002°38'0 0.0
2015-Jun-22 13:32N 39°33' E 002°38'0 0.0
2015-Jun-22 12:29N 39°33' E 002°38'0 0.0
2015-Jun-22 11:32N 39°33' E 002°38'6 4.9
2015-Jun-22 10:24N 39°29' E 002°34'9 9.2
2015-Jun-22 09:23N 39°33' E 002°23'1 0.0
2015-Jun-21 13:33N 39°32' E 002°22'2 2.2
2015-Jun-21 12:32N 39°32' E 002°25'0 0.0
2015-Jun-21 10:26N 39°32' E 002°25'0 0.0
2015-Jun-21 09:26N 39°32' E 002°25'0 0.0
2015-Jun-21 08:08N 39°32' E 002°25'4 5.9
2015-Jun-21 07:33N 39°29' E 002°27'9 9.2
2015-Jun-21 06:33N 39°32' E 002°38'1 1.3
2015-Jun-21 05:32N 39°33' E 002°38'0 0.0
2015-Jun-21 04:32N 39°33' E 002°38'0 0.0
2015-Jun-21 03:32N 39°33' E 002°38'0 0.0
2015-Jun-21 02:29N 39°33' E 002°38'0 0.0
2015-Jun-21 01:32N 39°33' E 002°38'0 0.0
2015-Jun-21 00:32N 39°33' E 002°38'0 0.0
2015-Jun-20 23:32N 39°33' E 002°38'0 0.0
2015-Jun-20 22:32N 39°33' E 002°38'0 0.0
2015-Jun-20 21:32N 39°33' E 002°38'0 0.0
2015-Jun-20 20:32N 39°33' E 002°38'0 0.0
2015-Jun-20 19:32N 39°33' E 002°38'  
Track history (hours):
 
Tides and Currents Weather Stations Pressure Air Temp Water Temp Dewpoint Dewpoint Depression Visibility Wind Speed Wind Dir Waves Ship Positions

Hana

Last reported at 2015-Jun-30 19:04 UTC. Time now 2015-Jun-30 21:25 UTC.
Position N 38°53' E 001°27'.

Length 42 m; draft 2.9 m.

Type: Pleasure craft. MMSI: 235065022.

Date/timePositionNaut miles runAvg speedWind from/ knotsBaromVisibWave heightAir tempDewpointWater temp
2015-Jun-30 19:04N 38°53' E 001°27'711.9
2015-Jun-30 18:29N 38°47' E 001°25'1 0.4
2015-Jun-30 15:27N 38°46' E 001°26'0 0.0
2015-Jun-30 14:20N 38°46' E 001°26'0 0.0
2015-Jun-30 12:30N 38°46' E 001°26'0 0.0
2015-Jun-30 10:19N 38°46' E 001°26'4 5.6
2015-Jun-30 09:33N 38°50' E 001°25'2 0.9
2015-Jun-30 07:33N 38°52' E 001°26'6 1.1
2015-Jun-30 02:33N 38°52' E 001°19'0 0.0
2015-Jun-30 01:30N 38°52' E 001°19'0 0.0
2015-Jun-29 22:12N 38°52' E 001°19'0 0.0
2015-Jun-29 21:29N 38°52' E 001°19'0 0.0
2015-Jun-29 20:25N 38°52' E 001°19'5 1.8
2015-Jun-29 17:29N 38°47' E 001°21'5 0.6
2015-Jun-29 09:11N 38°42' E 001°23'4 6.2
2015-Jun-29 08:33N 38°38' E 001°25'8 8.1
2015-Jun-29 07:33N 38°42' E 001°34'2 0.9
2015-Jun-29 05:27N 38°41' E 001°32'0 0.0
2015-Jun-29 04:33N 38°41' E 001°32'0 0.0
2015-Jun-29 03:33N 38°41' E 001°32'0 0.0
2015-Jun-29 02:29N 38°41' E 001°32'0 0.0
2015-Jun-29 01:29N 38°41' E 001°32'0 0.0
2015-Jun-28 21:15N 38°41' E 001°32'0 0.0
2015-Jun-28 20:05N 38°41' E 001°32'0 0.0
2015-Jun-28 19:21N 38°41' E 001°32'0 0.0
2015-Jun-28 18:21N 38°41' E 001°32'0 0.0
2015-Jun-28 17:29N 38°41' E 001°32'0 0.0
2015-Jun-28 15:33N 38°41' E 001°32'0 0.0
2015-Jun-28 14:21N 38°41' E 001°32'0 0.0
2015-Jun-28 13:33N 38°41' E 001°32'0 0.0
2015-Jun-28 10:23N 38°41' E 001°32'1 0.9
2015-Jun-28 09:31N 38°41' E 001°32'9 9.8
2015-Jun-28 08:33N 38°50' E 001°27'2 0.1
2015-Jun-27 18:34N 38°48' E 001°26'2 1.1
2015-Jun-27 16:32N 38°46' E 001°26'0 0.0
2015-Jun-27 11:32N 38°46' E 001°26'0 0.5
2015-Jun-27 10:33N 38°46' E 001°26'0 0.1
2015-Jun-27 09:27N 38°46' E 001°26'0 0.2
2015-Jun-27 08:24N 38°46' E 001°26'0 0.0
2015-Jun-27 07:30N 38°46' E 001°26'4 1.1
2015-Jun-27 04:04N 38°50' E 001°26'5 9.6
2015-Jun-27 03:32N 38°53' E 001°31'9 9.6
2015-Jun-27 02:33N 39°00' E 001°39'9 9.4
2015-Jun-27 01:33N 39°07' E 001°47'9 9.3
2015-Jun-27 00:33N 39°14' E 001°55'9 9.3
2015-Jun-26 23:33N 39°21' E 002°03'9 9.2
2015-Jun-26 22:33N 39°27' E 002°11'9 9.1
2015-Jun-26 21:33N 39°34' E 002°19'10 9.3
2015-Jun-26 20:31N 39°41' E 002°29'8 1.3
2015-Jun-26 14:25N 39°46' E 002°37'1 0.3
2015-Jun-26 12:33N 39°46' E 002°38'4 2.2
2015-Jun-26 10:33N 39°49' E 002°42'0 0.0
2015-Jun-26 09:33N 39°49' E 002°42'0 0.0
2015-Jun-26 08:34N 39°49' E 002°42'0 0.0
2015-Jun-26 07:34N 39°49' E 002°42'0 0.0
2015-Jun-26 06:33N 39°49' E 002°42'0 0.0
2015-Jun-26 05:34N 39°49' E 002°42'0 0.0
2015-Jun-26 04:33N 39°49' E 002°42'0 0.0
2015-Jun-26 03:33N 39°49' E 002°42'0 0.0
2015-Jun-26 02:33N 39°49' E 002°42'0 0.0
2015-Jun-26 01:33N 39°49' E 002°42'4 4.5
2015-Jun-26 00:33N 39°46' E 002°37'1010.2
2015-Jun-25 23:33N 39°40' E 002°27'8 0.6
2015-Jun-25 09:23N 39°32' E 002°25'0 0.1
2015-Jun-25 08:33N 39°32' E 002°25'0 0.0
2015-Jun-25 07:33N 39°32' E 002°25'0 0.0
2015-Jun-25 06:32N 39°32' E 002°25'0 0.0
2015-Jun-25 05:34N 39°32' E 002°25'0 0.0
2015-Jun-25 04:33N 39°32' E 002°25'0 0.0
2015-Jun-25 03:25N 39°32' E 002°25'0 0.0
2015-Jun-25 02:32N 39°32' E 002°25'0 0.0
2015-Jun-25 01:24N 39°32' E 002°25'0 0.0
2015-Jun-25 00:32N 39°32' E 002°25'5 5.3
2015-Jun-24 23:31N 39°36' E 002°21'5 5.0
2015-Jun-24 22:27N 39°31' E 002°22'9 9.8
2015-Jun-24 21:33N 39°27' E 002°32'8 8.0
2015-Jun-24 20:33N 39°33' E 002°38'0 0.0
2015-Jun-24 19:32N 39°33' E 002°38'1 0.9
2015-Jun-24 18:33N 39°33' E 002°39'5 5.2
2015-Jun-24 17:32N 39°30' E 002°33'0 0.0
2015-Jun-24 16:32N 39°30' E 002°33'0 0.0
2015-Jun-24 15:32N 39°30' E 002°33'0 0.4
2015-Jun-24 14:33N 39°31' E 002°33'5 4.5
2015-Jun-24 13:32N 39°33' E 002°38'0 0.0
2015-Jun-24 12:32N 39°33' E 002°38'0 0.0
2015-Jun-24 11:32N 39°33' E 002°38'0 0.0
2015-Jun-24 10:32N 39°33' E 002°38'0 0.0
2015-Jun-24 09:32N 39°33' E 002°38'0 0.0
2015-Jun-24 08:32N 39°33' E 002°38'0 0.0
2015-Jun-24 07:32N 39°33' E 002°38'0 0.0
2015-Jun-24 06:32N 39°33' E 002°38'0 0.0
2015-Jun-24 05:29N 39°33' E 002°38'0 0.0
2015-Jun-24 04:32N 39°33' E 002°38'0 0.0
2015-Jun-24 03:29N 39°33' E 002°38'0 0.0
2015-Jun-24 02:32N 39°33' E 002°38'0 0.0
2015-Jun-24 01:32N 39°33' E 002°38'0 0.0
2015-Jun-24 00:32N 39°33' E 002°38'0 0.0
2015-Jun-23 23:32N 39°33' E 002°38'0 0.0
2015-Jun-23 22:32N 39°33' E 002°38'0 0.0
2015-Jun-23 21:32N 39°33' E 002°38'0 0.0
2015-Jun-23 20:32N 39°33' E 002°38'0 0.0
2015-Jun-23 19:32N 39°33' E 002°38'0 0.0
2015-Jun-23 19:02N 39°33' E 002°38'0 0.0
2015-Jun-22 19:32N 39°33' E 002°38'0 0.0
2015-Jun-22 18:32N 39°33' E 002°38'0 0.0
2015-Jun-22 17:17N 39°33' E 002°38'0 0.0
2015-Jun-22 16:26N 39°33' E 002°38'0 0.0
2015-Jun-22 15:32N 39°33' E 002°38'0 0.0
2015-Jun-22 14:32N 39°33' E 002°38'0 0.0
2015-Jun-22 13:32N 39°33' E 002°38'0 0.0
2015-Jun-22 12:29N 39°33' E 002°38'0 0.0
2015-Jun-22 11:32N 39°33' E 002°38'6 4.9
2015-Jun-22 10:24N 39°29' E 002°34'9 9.2
2015-Jun-22 09:23N 39°33' E 002°23'1 0.0
2015-Jun-21 13:33N 39°32' E 002°22'2 2.2
2015-Jun-21 12:32N 39°32' E 002°25'0 0.0
2015-Jun-21 10:26N 39°32' E 002°25'0 0.0
2015-Jun-21 09:26N 39°32' E 002°25'0 0.0
2015-Jun-21 08:08N 39°32' E 002°25'4 5.9
2015-Jun-21 07:33N 39°29' E 002°27'9 9.2
2015-Jun-21 06:33N 39°32' E 002°38'1 1.3
2015-Jun-21 05:32N 39°33' E 002°38'0 0.0
2015-Jun-21 04:32N 39°33' E 002°38'0 0.0
2015-Jun-21 03:32N 39°33' E 002°38'0 0.0
2015-Jun-21 02:29N 39°33' E 002°38'0 0.0
2015-Jun-21 01:32N 39°33' E 002°38'0 0.0
2015-Jun-21 00:32N 39°33' E 002°38'0 0.0
2015-Jun-20 23:32N 39°33' E 002°38'0 0.0
2015-Jun-20 22:32N 39°33' E 002°38'0 0.0
2015-Jun-20 21:32N 39°33' E 002°38'0 0.0
2015-Jun-20 20:32N 39°33' E 002°38'0 0.0
2015-Jun-20 19:32N 39°33' E 002°38'  

Dump ship's entire track history